Ana Sayfa
METAR-TAF:

METAR-TAF

Havaalanları :

Maraga, İran

Enlem: 37-20-55N, Boylam: 046-07-35E, yükseklik: 1340 m

Güncel hava durumu gözlemi

Rapor saat 11:00 UTC de 46 dakika önce yapıldı.
Rüzgar doğudan 16 kt
Sıcaklık 31°C
Nem 22%
Basınç 1008 hPa
Görüş mesafesi 10 km veya daha fazla
3100 ft yükseklikte az bulutlu, Yükselen kümülüs.
3900 ft yükseklikte az bulutlu

METAR: OITM 061100Z 10016KT 9999 FEW031TCU FEW039 31/07 Q1008

Saat: 16:16 (11:46 UTC)


TAF: eksik

4.000'den fazla havaalanı için hava durumu gözlemleri ve tahminleri (METAR ve TAF raporları).

Kullanılabilir istasyonlar harita üzerinde sarı ve kırmızı noktalarla gösterilir.

İstasyonun adını görmek için fareyi noktanın üzerinde gezdirin.

Sonrasında hava gözlem ve tahminlerini görmek için tıklayın.

Haritayı değiştirmek için: yaklaştırmak için siyah artı işaretli yeşil düğmeye ve uzaklaştırmak için de eksi işaretli düğmeye hızla tıklayın; bitişik haritalar için yeşil okları kullanın.


METAR-TAF: